Time;durP1;ratioP1;P1;durP2;ratioP2;P2;SDS_P1;SDS_P2;PMS_P1;PMS_P2;Temp;Humidity;BMP_temperature;BMP_pressure;BME280_temperature;BME280_humidity;BME280_pressure;Samples;Min_cycle;Max_cycle;Signal;HPM_P1;HPM_P2
2022/01/13 00:00:47;;;;;;;78.53;35.25;;;;;;;;;;6257221;28;20040;-82
2022/01/13 00:03:48;;;;;;;66.93;29.35;;;;;;;;;;6258900;28;20033;-82
2022/01/13 00:06:48;;;;;;;82.60;37.10;;;;;;;;;;6252649;28;20056;-82
2022/01/13 00:09:48;;;;;;;53.67;27.35;;;;;;;;;;6266853;28;20031;-82
2022/01/13 00:12:56;;;;;;;86.53;39.08;;;;;;;;;;6245364;28;20026;-82
2022/01/13 00:16:26;;;;;;;81.90;33.85;;;;;;;;;;6245107;28;20017;-82
2022/01/13 00:25:53;;;;;;;90.20;38.25;;;;;;;;;;6268240;28;20098;-82
2022/01/13 00:28:54;;;;;;;71.50;30.33;;;;;;;;;;6244939;28;20021;-82
2022/01/13 00:31:55;;;;;;;61.38;27.35;;;;;;;;;;6245229;28;20017;-82
2022/01/13 00:34:55;;;;;;;79.45;38.75;;;;;;;;;;6243661;28;20087;-82
2022/01/13 00:37:55;;;;;;;71.93;31.42;;;;;;;;;;6242831;28;20040;-82
2022/01/13 00:40:55;;;;;;;80.07;33.80;;;;;;;;;;6261539;28;20037;-82
2022/01/13 00:43:56;;;;;;;98.95;39.83;;;;;;;;;;6267395;28;20029;-82
2022/01/13 00:47:00;;;;;;;55.22;26.88;;;;;;;;;;6246040;28;20501;-82
2022/01/13 00:50:00;;;;;;;56.88;29.15;;;;;;;;;;6249504;28;20564;-82
2022/01/13 00:53:01;;;;;;;60.90;28.77;;;;;;;;;;6272247;28;20051;-82
2022/01/13 00:56:02;;;;;;;109.78;40.70;;;;;;;;;;6273703;28;20480;-82
2022/01/13 00:59:07;;;;;;;86.68;37.80;;;;;;;;;;6297515;28;20043;-82
2022/01/13 01:02:07;;;;;;;106.55;40.38;;;;;;;;;;6297541;28;20023;-82
2022/01/13 01:05:07;;;;;;;86.93;41.35;;;;;;;;;;6297555;28;20032;-82
2022/01/13 01:08:09;;;;;;;97.45;43.13;;;;;;;;;;6272921;28;20530;-82
2022/01/13 01:11:10;;;;;;;102.20;41.33;;;;;;;;;;6251576;28;20109;-82
2022/01/13 01:14:12;;;;;;;84.72;31.63;;;;;;;;;;6246890;28;20383;-82
2022/01/13 01:17:16;;;;;;;108.80;46.60;;;;;;;;;;6247810;28;20064;-82
2022/01/13 01:20:17;;;;;;;89.15;39.78;;;;;;;;;;6247511;28;20026;-82
2022/01/13 01:23:22;;;;;;;82.72;35.45;;;;;;;;;;6264602;28;20017;-82
2022/01/13 01:29:41;;;;;;;97.43;39.35;;;;;;;;;;6272478;28;20037;-82
2022/01/13 01:32:42;;;;;;;45.47;20.95;;;;;;;;;;6272527;28;20029;-82
2022/01/13 01:35:43;;;;;;;89.37;39.73;;;;;;;;;;6269822;28;20020;-82
2022/01/13 01:38:47;;;;;;;87.43;36.80;;;;;;;;;;6206713;28;1160685;-82
2022/01/13 01:41:49;;;;;;;93.07;39.40;;;;;;;;;;6273440;28;20029;-82
2022/01/13 01:44:52;;;;;;;61.35;29.60;;;;;;;;;;6265255;28;20036;-82
2022/01/13 01:47:52;;;;;;;84.55;34.22;;;;;;;;;;6247857;28;20021;-82
2022/01/13 01:50:58;;;;;;;116.90;46.05;;;;;;;;;;6247663;28;20037;-82
2022/01/13 01:53:58;;;;;;;70.00;28.80;;;;;;;;;;6247492;28;20469;-82
2022/01/13 01:56:58;;;;;;;91.38;40.92;;;;;;;;;;6269582;28;20027;-82
2022/01/13 01:59:59;;;;;;;112.07;46.42;;;;;;;;;;6255476;28;20037;-82
2022/01/13 02:02:59;;;;;;;101.72;43.13;;;;;;;;;;6268180;28;20409;-82
2022/01/13 02:06:00;;;;;;;105.82;46.72;;;;;;;;;;6255052;28;20111;-82
2022/01/13 02:09:01;;;;;;;80.25;26.88;;;;;;;;;;6247675;28;20014;-82
2022/01/13 02:12:06;;;;;;;101.03;44.65;;;;;;;;;;6265487;28;20017;-82
2022/01/13 02:18:10;;;;;;;36.58;16.77;;;;;;;;;;6269232;28;20056;-82
2022/01/13 02:21:10;;;;;;;100.75;44.53;;;;;;;;;;6247870;28;20029;-82
2022/01/13 02:24:10;;;;;;;96.68;39.10;;;;;;;;;;6247104;28;20385;-82
2022/01/13 02:27:11;;;;;;;100.55;45.10;;;;;;;;;;6247615;28;20029;-82
2022/01/13 02:30:11;;;;;;;106.07;41.40;;;;;;;;;;6245961;28;20087;-82
2022/01/13 02:33:12;;;;;;;78.57;35.97;;;;;;;;;;6247413;28;20104;-82
2022/01/13 02:36:15;;;;;;;88.45;41.28;;;;;;;;;;6262255;28;20013;-82
2022/01/13 02:39:15;;;;;;;95.55;40.00;;;;;;;;;;6251049;28;20097;-82
2022/01/13 02:42:15;;;;;;;74.28;31.00;;;;;;;;;;6271425;28;20040;-82
2022/01/13 02:45:20;;;;;;;121.47;51.97;;;;;;;;;;6270363;28;20031;-82
2022/01/13 02:51:23;;;;;;;72.20;34.08;;;;;;;;;;6285248;28;20044;-82
2022/01/13 02:54:23;;;;;;;104.93;46.83;;;;;;;;;;6261318;28;20473;-82
2022/01/13 02:57:24;;;;;;;119.53;49.15;;;;;;;;;;6246479;28;20026;-82
2022/01/13 03:00:24;;;;;;;87.25;40.10;;;;;;;;;;6247095;28;20037;-82
2022/01/13 03:03:24;;;;;;;75.53;36.28;;;;;;;;;;6254408;28;20032;-82
2022/01/13 03:06:32;;;;;;;94.80;40.13;;;;;;;;;;6262969;28;20021;-82
2022/01/13 03:09:32;;;;;;;71.63;31.67;;;;;;;;;;6263691;28;20044;-82
2022/01/13 03:12:35;;;;;;;74.20;34.83;;;;;;;;;;6268459;28;20028;-82
2022/01/13 03:15:36;;;;;;;97.18;40.80;;;;;;;;;;6245552;28;20022;-82
2022/01/13 03:18:36;;;;;;;101.43;37.08;;;;;;;;;;6245162;28;20116;-82
2022/01/13 03:21:37;;;;;;;55.42;28.40;;;;;;;;;;6247128;28;20432;-82
2022/01/13 03:24:37;;;;;;;98.07;42.17;;;;;;;;;;6246639;28;20047;-82
2022/01/13 03:27:37;;;;;;;69.70;31.33;;;;;;;;;;6251109;28;20032;-82
2022/01/13 03:30:38;;;;;;;103.45;42.92;;;;;;;;;;6244770;28;20052;-82
2022/01/13 03:33:38;;;;;;;65.40;29.17;;;;;;;;;;6246695;28;20100;-82
2022/01/13 03:36:38;;;;;;;110.90;43.42;;;;;;;;;;6244882;28;20377;-82
2022/01/13 03:39:39;;;;;;;98.38;38.55;;;;;;;;;;6252719;28;20102;-82
2022/01/13 03:42:39;;;;;;;96.95;37.60;;;;;;;;;;6270952;28;20072;-82
2022/01/13 03:45:39;;;;;;;107.25;45.30;;;;;;;;;;6255633;28;20037;-82
2022/01/13 03:48:40;;;;;;;103.47;43.83;;;;;;;;;;6245250;28;20116;-82
2022/01/13 03:51:55;;;;;;;74.18;31.73;;;;;;;;;;6246673;28;20022;-82
2022/01/13 03:55:14;;;;;;;107.30;44.90;;;;;;;;;;6246334;28;20380;-82
2022/01/13 03:58:26;;;;;;;111.05;45.65;;;;;;;;;;6247642;28;20199;-82
2022/01/13 04:01:27;;;;;;;92.28;39.85;;;;;;;;;;6248568;28;20381;-82
2022/01/13 04:04:28;;;;;;;57.80;26.20;;;;;;;;;;6245398;28;20029;-82
2022/01/13 04:07:28;;;;;;;42.47;19.20;;;;;;;;;;6246206;28;20018;-83
2022/01/13 04:10:44;;;;;;;99.75;42.42;;;;;;;;;;6244253;28;20036;-82
2022/01/13 04:16:45;;;;;;;113.88;39.97;;;;;;;;;;6270192;28;20172;-82
2022/01/13 04:19:46;;;;;;;53.00;27.52;;;;;;;;;;6269822;28;20457;-82
2022/01/13 04:22:46;;;;;;;50.50;21.73;;;;;;;;;;6256065;28;20033;-82
2022/01/13 04:25:47;;;;;;;85.68;33.67;;;;;;;;;;6245948;28;20076;-81
2022/01/13 04:29:01;;;;;;;70.53;30.05;;;;;;;;;;6264493;28;20032;-82
2022/01/13 04:32:02;;;;;;;69.60;30.77;;;;;;;;;;6276756;28;20032;-82
2022/01/13 04:35:03;;;;;;;85.23;30.70;;;;;;;;;;6279942;23;20053;-65
2022/01/13 04:38:03;;;;;;;75.03;29.27;;;;;;;;;;6267697;28;20017;-64
2022/01/13 04:41:04;;;;;;;49.50;22.30;;;;;;;;;;6266661;28;20025;-64
2022/01/13 04:44:06;;;;;;;79.47;28.63;;;;;;;;;;6265528;28;20135;-64
2022/01/13 04:47:07;;;;;;;65.97;26.55;;;;;;;;;;6242913;28;20051;-65
2022/01/13 04:50:08;;;;;;;82.60;32.53;;;;;;;;;;6248498;28;20128;-65
2022/01/13 04:53:08;;;;;;;73.30;30.75;;;;;;;;;;6267759;28;20013;-65
2022/01/13 04:56:13;;;;;;;60.97;27.00;;;;;;;;;;6267823;28;20138;-65
2022/01/13 04:59:13;;;;;;;72.18;26.40;;;;;;;;;;6254426;28;20033;-65
2022/01/13 05:02:16;;;;;;;64.00;27.27;;;;;;;;;;6242542;28;20075;-65
2022/01/13 05:05:16;;;;;;;85.70;35.80;;;;;;;;;;6242791;28;20014;-65
2022/01/13 05:08:17;;;;;;;93.65;40.67;;;;;;;;;;6246459;28;20082;-65
2022/01/13 05:11:17;;;;;;;96.13;35.65;;;;;;;;;;6254080;28;20030;-65
2022/01/13 05:14:17;;;;;;;48.53;25.42;;;;;;;;;;6242374;28;20045;-65
2022/01/13 05:17:46;;;;;;;96.05;40.50;;;;;;;;;;6245567;28;20010;-65
2022/01/13 05:20:46;;;;;;;82.85;37.70;;;;;;;;;;6254666;28;20032;-65
2022/01/13 05:23:46;;;;;;;90.75;41.03;;;;;;;;;;6254735;28;20025;-64
2022/01/13 05:26:47;;;;;;;64.57;26.33;;;;;;;;;;6258074;28;20388;-64
2022/01/13 05:29:47;;;;;;;64.60;32.38;;;;;;;;;;6252222;28;20021;-64
2022/01/13 05:32:47;;;;;;;67.47;29.05;;;;;;;;;;6256507;28;20125;-64
2022/01/13 05:35:47;;;;;;;66.97;29.23;;;;;;;;;;6266169;28;20096;-65
2022/01/13 05:38:48;;;;;;;40.55;20.42;;;;;;;;;;6266814;28;20455;-65
2022/01/13 05:41:48;;;;;;;37.67;19.50;;;;;;;;;;6271209;28;20052;-65
2022/01/13 05:44:48;;;;;;;39.10;17.95;;;;;;;;;;6262768;28;20053;-65
2022/01/13 05:47:49;;;;;;;49.78;21.58;;;;;;;;;;6258558;28;20025;-65
2022/01/13 05:50:49;;;;;;;33.50;16.38;;;;;;;;;;6270898;28;20067;-65
2022/01/13 05:53:50;;;;;;;51.72;22.02;;;;;;;;;;6271128;28;20020;-65
2022/01/13 05:56:50;;;;;;;38.35;18.02;;;;;;;;;;6266415;28;20026;-65
2022/01/13 05:59:50;;;;;;;36.75;17.65;;;;;;;;;;6246417;28;20392;-65
2022/01/13 06:02:51;;;;;;;59.60;28.33;;;;;;;;;;6255632;28;20029;-65
2022/01/13 06:05:51;;;;;;;36.97;18.45;;;;;;;;;;6260202;28;20060;-65
2022/01/13 06:08:52;;;;;;;50.40;23.40;;;;;;;;;;6257014;28;20037;-65
2022/01/13 06:11:58;;;;;;;59.45;26.17;;;;;;;;;;6255302;28;20096;-65
2022/01/13 06:15:02;;;;;;;46.30;19.05;;;;;;;;;;6258005;28;20009;-65
2022/01/13 06:18:03;;;;;;;59.70;29.00;;;;;;;;;;6259839;28;20028;-65
2022/01/13 06:21:04;;;;;;;25.88;14.35;;;;;;;;;;6267541;28;20382;-66
2022/01/13 06:24:04;;;;;;;78.32;30.83;;;;;;;;;;6269309;28;20017;-66
2022/01/13 06:27:07;;;;;;;88.22;38.20;;;;;;;;;;6259488;28;20024;-66
2022/01/13 06:30:09;;;;;;;63.70;32.70;;;;;;;;;;6269704;28;20028;-66
2022/01/13 06:33:10;;;;;;;94.93;38.47;;;;;;;;;;6270543;28;20080;-66
2022/01/13 06:36:10;;;;;;;83.30;36.38;;;;;;;;;;6270509;28;20016;-66
2022/01/13 06:39:10;;;;;;;92.35;39.75;;;;;;;;;;6251027;28;20104;-66
2022/01/13 06:42:11;;;;;;;85.22;39.15;;;;;;;;;;6269931;28;20025;-66
2022/01/13 06:45:11;;;;;;;39.97;23.50;;;;;;;;;;6257280;28;20095;-66
2022/01/13 06:48:12;;;;;;;97.53;46.40;;;;;;;;;;6256003;28;20470;-66
2022/01/13 06:51:12;;;;;;;71.85;31.85;;;;;;;;;;6253761;28;20104;-66
2022/01/13 06:54:12;;;;;;;61.88;30.15;;;;;;;;;;6244738;28;20239;-66
2022/01/13 06:57:12;;;;;;;71.65;32.40;;;;;;;;;;6258611;28;20357;-66
2022/01/13 07:00:13;;;;;;;56.95;25.92;;;;;;;;;;6266307;28;20017;-67
2022/01/13 07:03:13;;;;;;;54.65;24.15;;;;;;;;;;6251073;28;20021;-67
2022/01/13 07:06:14;;;;;;;88.65;37.95;;;;;;;;;;6250269;28;20021;-66
2022/01/13 07:09:17;;;;;;;72.25;34.25;;;;;;;;;;6254483;28;20501;-66
2022/01/13 07:12:17;;;;;;;79.93;36.88;;;;;;;;;;6259122;28;20115;-66
2022/01/13 07:15:17;;;;;;;52.33;27.52;;;;;;;;;;6254844;28;20032;-66
2022/01/13 07:18:17;;;;;;;75.75;35.70;;;;;;;;;;6249401;28;20100;-67
2022/01/13 07:21:19;;;;;;;98.00;44.13;;;;;;;;;;6256454;28;20075;-67
2022/01/13 07:24:19;;;;;;;96.72;40.63;;;;;;;;;;6255101;28;20029;-66
2022/01/13 07:27:20;;;;;;;101.72;43.10;;;;;;;;;;6255822;28;20028;-67
2022/01/13 07:30:20;;;;;;;104.45;43.72;;;;;;;;;;6253974;28;20022;-67
2022/01/13 07:33:20;;;;;;;109.10;45.92;;;;;;;;;;6254896;28;20037;-67
2022/01/13 07:36:20;;;;;;;112.93;48.38;;;;;;;;;;6252346;28;20047;-67
2022/01/13 07:39:21;;;;;;;99.07;44.05;;;;;;;;;;6257028;28;20475;-67
2022/01/13 07:42:23;;;;;;;75.15;33.53;;;;;;;;;;6253743;28;20092;-67
2022/01/13 07:45:24;;;;;;;75.82;38.67;;;;;;;;;;6257781;28;20017;-67
2022/01/13 07:48:24;;;;;;;63.67;31.55;;;;;;;;;;6255828;28;20032;-67
2022/01/13 07:51:25;;;;;;;52.13;24.23;;;;;;;;;;6267980;28;20075;-67
2022/01/13 07:54:27;;;;;;;64.45;26.17;;;;;;;;;;6267652;28;20508;-67
2022/01/13 07:57:28;;;;;;;78.03;36.33;;;;;;;;;;6267882;28;20084;-67
2022/01/13 08:00:28;;;;;;;82.47;41.88;;;;;;;;;;6266447;28;20538;-67
2022/01/13 08:03:28;;;;;;;72.45;30.02;;;;;;;;;;6255193;28;20077;-67
2022/01/13 08:06:28;;;;;;;57.55;29.80;;;;;;;;;;6248094;28;20392;-67
2022/01/13 08:09:29;;;;;;;60.97;28.17;;;;;;;;;;6245763;28;20018;-67
2022/01/13 08:12:29;;;;;;;53.28;26.95;;;;;;;;;;6246081;28;20367;-67
2022/01/13 08:15:29;;;;;;;53.45;24.70;;;;;;;;;;6263316;28;20025;-67
2022/01/13 08:21:49;;;;;;;47.17;24.73;;;;;;;;;;6258538;28;20029;-67
2022/01/13 08:24:49;;;;;;;60.40;27.02;;;;;;;;;;6267170;28;20028;-67
2022/01/13 08:27:50;;;;;;;63.67;31.00;;;;;;;;;;6254013;28;20397;-67
2022/01/13 08:30:50;;;;;;;58.47;26.70;;;;;;;;;;6250850;28;20032;-67
2022/01/13 08:33:50;;;;;;;48.63;24.65;;;;;;;;;;6267299;28;20090;-67
2022/01/13 08:36:50;;;;;;;64.70;28.35;;;;;;;;;;6247517;28;20021;-67
2022/01/13 08:39:51;;;;;;;42.00;19.67;;;;;;;;;;6247431;28;20548;-67
2022/01/13 08:42:51;;;;;;;50.45;24.63;;;;;;;;;;6251879;28;20094;-67
2022/01/13 08:45:51;;;;;;;64.60;29.15;;;;;;;;;;6255569;28;20014;-67
2022/01/13 08:48:52;;;;;;;64.93;31.77;;;;;;;;;;6248249;28;20104;-67
2022/01/13 08:51:54;;;;;;;70.78;27.23;;;;;;;;;;6257088;28;20024;-67
2022/01/13 08:54:59;;;;;;;70.15;30.73;;;;;;;;;;6258313;28;20070;-68
2022/01/13 08:57:59;;;;;;;65.32;31.85;;;;;;;;;;6245893;28;20033;-67
2022/01/13 09:01:00;;;;;;;42.42;24.50;;;;;;;;;;6244598;28;20022;-67
2022/01/13 09:04:00;;;;;;;56.92;31.65;;;;;;;;;;6245632;28;20030;-67
2022/01/13 09:07:00;;;;;;;47.17;23.83;;;;;;;;;;6249436;28;20692;-67
2022/01/13 09:10:00;;;;;;;44.20;23.50;;;;;;;;;;6265002;28;20057;-68
2022/01/13 09:13:01;;;;;;;50.30;18.27;;;;;;;;;;6253461;28;20017;-68
2022/01/13 09:16:02;;;;;;;71.38;33.20;;;;;;;;;;6253499;28;20013;-68
2022/01/13 09:19:08;;;;;;;64.40;27.95;;;;;;;;;;6258500;28;20033;-68
2022/01/13 09:22:08;;;;;;;68.28;27.48;;;;;;;;;;6255958;28;20025;-68
2022/01/13 09:25:10;;;;;;;62.78;30.23;;;;;;;;;;6257009;28;20028;-69
2022/01/13 09:28:11;;;;;;;68.80;31.90;;;;;;;;;;6256472;28;20406;-68
2022/01/13 09:31:11;;;;;;;53.63;26.20;;;;;;;;;;6260793;28;20025;-68
2022/01/13 09:34:11;;;;;;;58.13;25.38;;;;;;;;;;6256572;28;20087;-69
2022/01/13 09:37:12;;;;;;;69.45;30.58;;;;;;;;;;6260649;28;20025;-68
2022/01/13 09:40:12;;;;;;;58.42;24.85;;;;;;;;;;6264519;28;20088;-69
2022/01/13 09:43:13;;;;;;;66.55;30.30;;;;;;;;;;6272095;28;20518;-69
2022/01/13 09:46:13;;;;;;;52.45;22.13;;;;;;;;;;6253026;28;20033;-69
2022/01/13 09:49:13;;;;;;;57.70;26.35;;;;;;;;;;6256875;28;20071;-69
2022/01/13 09:52:14;;;;;;;36.67;19.73;;;;;;;;;;6258301;28;20018;-69
2022/01/13 09:55:15;;;;;;;64.47;26.23;;;;;;;;;;6261030;28;20501;-69
2022/01/13 09:58:15;;;;;;;65.97;31.77;;;;;;;;;;6257139;28;20108;-69
2022/01/13 10:01:15;;;;;;;56.03;26.85;;;;;;;;;;6256073;28;20025;-69
2022/01/13 10:04:16;;;;;;;52.42;24.25;;;;;;;;;;6259020;28;20377;-73
2022/01/13 10:07:35;;;;;;;58.20;25.80;;;;;;;;;;6256484;28;20101;-69
2022/01/13 10:10:36;;;;;;;42.80;20.48;;;;;;;;;;6257076;28;20158;-69
2022/01/13 10:13:50;;;;;;;53.83;24.90;;;;;;;;;;6271928;28;20013;-69
2022/01/13 10:16:52;;;;;;;49.30;22.77;;;;;;;;;;6251571;28;20474;-69
2022/01/13 10:19:57;;;;;;;56.70;26.00;;;;;;;;;;6255602;28;20075;-69
2022/01/13 10:23:10;;;;;;;22.95;14.05;;;;;;;;;;6253704;28;20385;-70
2022/01/13 10:26:12;;;;;;;51.55;24.80;;;;;;;;;;6260263;28;20387;-70
2022/01/13 10:29:13;;;;;;;56.97;24.48;;;;;;;;;;6253681;28;20101;-70
2022/01/13 10:32:17;;;;;;;74.57;31.45;;;;;;;;;;6260302;28;20376;-70
2022/01/13 10:35:19;;;;;;;59.63;23.60;;;;;;;;;;6255794;28;20041;-70
2022/01/13 10:38:20;;;;;;;60.45;26.35;;;;;;;;;;6249737;28;20473;-70
2022/01/13 10:41:49;;;;;;;45.28;22.85;;;;;;;;;;6257579;28;20024;-70
2022/01/13 10:44:53;;;;;;;58.20;29.10;;;;;;;;;;6249999;28;20444;-71
2022/01/13 10:47:56;;;;;;;72.55;32.58;;;;;;;;;;6247405;28;20059;-71
2022/01/13 10:50:56;;;;;;;41.67;20.10;;;;;;;;;;6251814;28;20021;-71
2022/01/13 10:54:01;;;;;;;51.60;19.85;;;;;;;;;;6259466;28;20504;-71
2022/01/13 10:57:17;;;;;;;66.32;26.95;;;;;;;;;;6254798;28;20014;-71
2022/01/13 11:00:17;;;;;;;48.30;20.98;;;;;;;;;;6269511;28;20013;-71
2022/01/13 11:03:19;;;;;;;46.10;17.33;;;;;;;;;;6253305;28;20032;-71
2022/01/13 11:06:26;;;;;;;60.28;24.83;;;;;;;;;;6263218;28;20507;-71
2022/01/13 11:09:26;;;;;;;40.38;18.02;;;;;;;;;;6249008;28;20025;-71
2022/01/13 11:12:42;;;;;;;50.35;24.00;;;;;;;;;;6266361;28;20025;-71
2022/01/13 11:15:45;;;;;;;47.22;23.65;;;;;;;;;;6269133;28;20024;-71
2022/01/13 11:18:46;;;;;;;37.50;17.73;;;;;;;;;;6256553;28;20024;-72
2022/01/13 11:21:47;;;;;;;49.22;18.83;;;;;;;;;;6247027;28;20025;-72
2022/01/13 11:24:47;;;;;;;46.03;23.20;;;;;;;;;;6250254;28;20029;-72
2022/01/13 11:27:47;;;;;;;55.85;27.05;;;;;;;;;;6257437;28;20071;-72
2022/01/13 11:30:50;;;;;;;41.72;18.10;;;;;;;;;;6244310;28;20434;-72
2022/01/13 11:33:50;;;;;;;53.33;22.80;;;;;;;;;;6243772;28;20044;-72
2022/01/13 11:36:51;;;;;;;54.30;23.75;;;;;;;;;;6255143;28;20018;-72
2022/01/13 11:39:52;;;;;;;32.10;15.10;;;;;;;;;;6255925;28;20120;-72
2022/01/13 11:42:53;;;;;;;46.97;23.58;;;;;;;;;;6256813;28;20786;-72
2022/01/13 11:45:53;;;;;;;46.83;17.25;;;;;;;;;;6257969;28;20416;-72
2022/01/13 11:49:05;;;;;;;67.35;23.15;;;;;;;;;;6247599;28;20414;-72
2022/01/13 11:52:15;;;;;;;47.90;21.88;;;;;;;;;;6249273;28;20393;-72
2022/01/13 11:55:24;;;;;;;54.20;27.25;;;;;;;;;;6254919;28;20504;-72
2022/01/13 11:58:31;;;;;;;78.47;31.48;;;;;;;;;;6244844;28;20032;-72
2022/01/13 12:01:34;;;;;;;63.25;30.38;;;;;;;;;;6245579;28;20024;-72
2022/01/13 12:04:34;;;;;;;64.85;28.45;;;;;;;;;;6244122;28;20166;-73
2022/01/13 12:07:35;;;;;;;49.22;24.08;;;;;;;;;;6256273;28;20032;-72
2022/01/13 12:10:37;;;;;;;58.65;27.35;;;;;;;;;;6244678;28;20022;-73
2022/01/13 12:13:39;;;;;;;58.60;24.98;;;;;;;;;;6250850;28;20100;-73
2022/01/13 12:17:27;;;;;;;44.72;22.38;;;;;;;;;;6253172;28;20154;-73
2022/01/13 12:20:38;;;;;;;51.97;22.33;;;;;;;;;;6245631;28;20120;-73
2022/01/13 12:23:39;;;;;;;57.63;26.65;;;;;;;;;;6252390;28;20126;-73
2022/01/13 12:26:42;;;;;;;59.83;25.52;;;;;;;;;;6251949;28;20509;-73
2022/01/13 12:29:48;;;;;;;50.30;25.00;;;;;;;;;;6246037;28;20044;-72
2022/01/13 12:32:49;;;;;;;43.00;20.00;;;;;;;;;;6243458;28;20029;-73
2022/01/13 12:35:50;;;;;;;42.53;21.63;;;;;;;;;;6259808;28;20049;-72
2022/01/13 12:39:00;;;;;;;62.55;27.60;;;;;;;;;;6247723;28;20388;-73
2022/01/13 12:42:03;;;;;;;47.75;22.02;;;;;;;;;;6251321;28;20009;-73
2022/01/13 12:48:27;;;;;;;57.75;25.70;;;;;;;;;;6262630;28;20056;-73
2022/01/13 12:51:29;;;;;;;41.30;21.08;;;;;;;;;;6259548;28;20036;-73
2022/01/13 12:54:29;;;;;;;;;;;;;;;;;;6248766;28;20140;-73
2022/01/13 12:57:29;;;;;;;45.55;24.35;;;;;;;;;;6254987;28;19913;-73
2022/01/13 13:00:30;;;;;;;51.80;18.67;;;;;;;;;;6257889;28;20029;-73
2022/01/13 13:03:30;;;;;;;51.50;23.00;;;;;;;;;;6252302;28;20536;-73
2022/01/13 13:06:32;;;;;;;61.50;28.45;;;;;;;;;;6254769;28;20496;-73
2022/01/13 13:09:33;;;;;;;66.50;29.77;;;;;;;;;;6252407;28;20485;-73
2022/01/13 13:12:35;;;;;;;35.92;16.38;;;;;;;;;;6250794;28;20055;-73
2022/01/13 13:18:36;;;;;;;45.35;22.30;;;;;;;;;;6246208;28;20673;-73
2022/01/13 13:21:36;;;;;;;80.07;34.72;;;;;;;;;;6257021;28;20074;-73
2022/01/13 13:24:37;;;;;;;63.42;32.72;;;;;;;;;;6270924;28;20025;-73
2022/01/13 13:27:38;;;;;;;54.50;26.23;;;;;;;;;;6253025;28;20045;-73
2022/01/13 13:30:42;;;;;;;53.03;22.40;;;;;;;;;;6257529;28;20028;-73
2022/01/13 13:33:47;;;;;;;56.92;26.95;;;;;;;;;;6256284;28;20041;-73
2022/01/13 13:36:48;;;;;;;63.50;30.48;;;;;;;;;;6250057;28;20490;-73
2022/01/13 13:39:48;;;;;;;62.80;30.35;;;;;;;;;;6254400;28;20027;-73
2022/01/13 13:42:59;;;;;;;66.80;32.10;;;;;;;;;;6254409;28;20033;-73
2022/01/13 13:46:00;;;;;;;53.60;29.05;;;;;;;;;;6245371;28;20284;-73
2022/01/13 13:49:02;;;;;;;41.53;20.88;;;;;;;;;;6250554;28;20120;-73
2022/01/13 13:52:03;;;;;;;49.93;27.30;;;;;;;;;;6254714;28;20029;-74
2022/01/13 13:55:08;;;;;;;40.28;17.25;;;;;;;;;;6266339;28;20028;-74
2022/01/13 13:58:10;;;;;;;71.97;32.58;;;;;;;;;;6263180;28;20028;-74
2022/01/13 14:01:10;;;;;;;61.20;31.75;;;;;;;;;;6252944;28;20110;-74
2022/01/13 14:04:11;;;;;;;60.95;29.75;;;;;;;;;;6258645;28;20025;-73
2022/01/13 14:07:22;;;;;;;79.13;37.53;;;;;;;;;;6254867;28;20032;-73
2022/01/13 14:10:22;;;;;;;77.40;32.83;;;;;;;;;;6260138;28;20021;-73
2022/01/13 14:13:23;;;;;;;66.15;29.45;;;;;;;;;;6270233;28;20078;-73
2022/01/13 14:16:33;;;;;;;69.03;29.65;;;;;;;;;;6270142;28;20021;-74
2022/01/13 14:19:34;;;;;;;62.13;29.67;;;;;;;;;;6245897;28;20025;-74
2022/01/13 14:22:34;;;;;;;98.35;46.08;;;;;;;;;;6247565;28;20052;-74
2022/01/13 14:25:39;;;;;;;54.03;26.55;;;;;;;;;;6245729;28;20033;-74
2022/01/13 14:28:47;;;;;;;48.28;22.15;;;;;;;;;;6263888;28;20037;-74
2022/01/13 14:31:47;;;;;;;45.85;26.50;;;;;;;;;;6261821;28;20036;-74
2022/01/13 14:34:51;;;;;;;74.72;35.72;;;;;;;;;;6256384;28;20072;-74
2022/01/13 14:37:55;;;;;;;72.72;36.15;;;;;;;;;;6247215;28;20052;-74
2022/01/13 14:40:55;;;;;;;49.70;22.17;;;;;;;;;;6257187;28;20484;-74
2022/01/13 14:43:55;;;;;;;46.05;19.40;;;;;;;;;;6252960;28;20070;-74
2022/01/13 14:47:03;;;;;;;49.08;24.40;;;;;;;;;;6258358;28;20021;-74
2022/01/13 14:50:04;;;;;;;51.13;24.33;;;;;;;;;;6244113;28;20075;-74
2022/01/13 14:53:04;;;;;;;42.13;20.02;;;;;;;;;;6256560;28;20045;-74
2022/01/13 14:56:06;;;;;;;53.22;26.48;;;;;;;;;;6255853;28;20025;-74
2022/01/13 14:59:06;;;;;;;63.38;30.50;;;;;;;;;;6253422;28;20035;-74
2022/01/13 15:02:06;;;;;;;44.88;20.58;;;;;;;;;;6257697;28;20100;-74
2022/01/13 15:05:07;;;;;;;60.97;28.52;;;;;;;;;;6261973;28;20477;-74
2022/01/13 15:08:07;;;;;;;76.53;35.42;;;;;;;;;;6262952;28;20021;-74
2022/01/13 15:11:08;;;;;;;34.47;19.42;;;;;;;;;;6259123;28;20033;-74
2022/01/13 15:14:08;;;;;;;49.80;20.02;;;;;;;;;;6259482;28;20040;-74
2022/01/13 15:17:09;;;;;;;70.43;33.35;;;;;;;;;;6258564;28;20020;-74
2022/01/13 15:20:09;;;;;;;51.70;21.42;;;;;;;;;;6254563;28;20167;-74
2022/01/13 15:23:10;;;;;;;46.00;18.77;;;;;;;;;;6254854;28;20061;-74
2022/01/13 15:26:10;;;;;;;51.90;19.75;;;;;;;;;;6252657;28;20902;-74
2022/01/13 15:29:10;;;;;;;65.68;30.70;;;;;;;;;;6252664;28;20029;-74
2022/01/13 15:32:10;;;;;;;57.70;27.70;;;;;;;;;;6255602;28;20114;-74
2022/01/13 15:35:11;;;;;;;50.72;28.40;;;;;;;;;;6241840;28;20421;-74
2022/01/13 15:38:11;;;;;;;110.72;45.28;;;;;;;;;;6252192;28;20718;-74
2022/01/13 15:41:12;;;;;;;60.80;30.45;;;;;;;;;;6257461;28;20017;-74
2022/01/13 15:44:12;;;;;;;46.20;24.33;;;;;;;;;;6262276;28;20079;-74
2022/01/13 15:47:13;;;;;;;49.58;23.67;;;;;;;;;;6255473;28;20675;-74
2022/01/13 15:50:15;;;;;;;53.67;24.80;;;;;;;;;;6265209;28;20017;-74
2022/01/13 15:53:16;;;;;;;49.42;26.67;;;;;;;;;;6267505;28;20385;-74
2022/01/13 15:56:16;;;;;;;50.60;24.40;;;;;;;;;;6266738;28;20104;-74
2022/01/13 15:59:17;;;;;;;54.17;31.17;;;;;;;;;;6245655;28;20095;-74
2022/01/13 16:02:18;;;;;;;71.53;33.63;;;;;;;;;;6250668;28;20551;-74
2022/01/13 16:05:18;;;;;;;53.83;26.83;;;;;;;;;;6263207;28;20077;-74
2022/01/13 16:08:18;;;;;;;66.03;35.00;;;;;;;;;;6264510;28;20032;-74
2022/01/13 16:11:19;;;;;;;82.55;37.13;;;;;;;;;;6251712;28;20038;-74
2022/01/13 16:14:19;;;;;;;60.75;30.77;;;;;;;;;;6238823;28;20104;-74
2022/01/13 16:17:20;;;;;;;73.45;39.13;;;;;;;;;;6256651;28;20084;-74
2022/01/13 16:20:20;;;;;;;78.80;42.30;;;;;;;;;;6252705;28;20091;-74
2022/01/13 16:23:21;;;;;;;53.15;27.40;;;;;;;;;;6250032;28;20037;-74
2022/01/13 16:26:21;;;;;;;81.53;38.88;;;;;;;;;;6254497;28;20087;-74
2022/01/13 16:29:40;;;;;;;80.13;31.85;;;;;;;;;;6244082;28;20079;-74
2022/01/13 16:32:47;;;;;;;86.45;37.92;;;;;;;;;;6242811;28;20112;-74
2022/01/13 16:35:47;;;;;;;76.90;35.17;;;;;;;;;;6255740;28;20428;-74
2022/01/13 16:38:48;;;;;;;63.63;31.23;;;;;;;;;;6266278;28;20017;-74
2022/01/13 16:41:48;;;;;;;71.32;32.50;;;;;;;;;;6246120;28;20079;-74
2022/01/13 16:44:49;;;;;;;71.68;35.55;;;;;;;;;;6251767;28;20101;-74
2022/01/13 16:47:49;;;;;;;74.65;32.80;;;;;;;;;;6255190;28;20477;-74
2022/01/13 16:50:50;;;;;;;82.55;36.55;;;;;;;;;;6256419;28;20032;-74
2022/01/13 16:53:50;;;;;;;100.75;44.63;;;;;;;;;;6264312;28;20037;-74
2022/01/13 16:56:50;;;;;;;94.97;45.30;;;;;;;;;;6253223;28;20442;-74
2022/01/13 16:59:50;;;;;;;95.40;48.58;;;;;;;;;;6243220;28;20029;-74
2022/01/13 17:02:51;;;;;;;98.22;43.28;;;;;;;;;;6260880;28;20021;-74
2022/01/13 17:05:52;;;;;;;85.25;44.67;;;;;;;;;;6266660;28;20457;-73
2022/01/13 17:08:53;;;;;;;74.85;36.88;;;;;;;;;;6266915;28;20025;-72
2022/01/13 17:11:53;;;;;;;72.13;34.63;;;;;;;;;;6247449;28;20022;-73
2022/01/13 17:14:55;;;;;;;53.35;27.45;;;;;;;;;;6252921;28;20017;-73
2022/01/13 17:17:55;;;;;;;62.28;25.88;;;;;;;;;;6267100;28;20083;-73
2022/01/13 17:20:56;;;;;;;51.08;25.50;;;;;;;;;;6248119;28;20037;-73
2022/01/13 17:23:57;;;;;;;90.22;44.10;;;;;;;;;;6245341;28;20029;-73
2022/01/13 17:26:58;;;;;;;53.55;28.42;;;;;;;;;;6257437;28;20508;-73
2022/01/13 17:29:58;;;;;;;67.07;31.25;;;;;;;;;;6253599;28;20037;-73
2022/01/13 17:32:59;;;;;;;93.18;40.88;;;;;;;;;;6261112;28;20456;-73
2022/01/13 17:35:59;;;;;;;79.32;41.05;;;;;;;;;;6255094;28;20079;-73
2022/01/13 17:39:02;;;;;;;68.90;33.70;;;;;;;;;;6257379;28;20036;-73
2022/01/13 17:42:04;;;;;;;50.70;24.77;;;;;;;;;;6264029;28;20032;-73
2022/01/13 17:45:05;;;;;;;70.13;34.72;;;;;;;;;;6260653;28;20025;-73
2022/01/13 17:48:05;;;;;;;37.33;19.45;;;;;;;;;;6257833;28;20047;-73
2022/01/13 17:51:06;;;;;;;101.05;45.03;;;;;;;;;;6255745;28;20124;-73
2022/01/13 17:54:06;;;;;;;71.38;36.45;;;;;;;;;;6257092;28;20029;-73
2022/01/13 17:57:06;;;;;;;70.22;30.73;;;;;;;;;;6252257;28;20096;-73
2022/01/13 18:00:07;;;;;;;70.93;30.00;;;;;;;;;;6257569;28;20039;-73
2022/01/13 18:03:07;;;;;;;65.40;31.40;;;;;;;;;;6251701;28;20478;-73
2022/01/13 18:06:08;;;;;;;37.92;21.35;;;;;;;;;;6244196;28;20048;-73